sensor_id;sensor_type;location;lat;lon;timestamp;pressure;altitude;pressure_sealevel;temperature;humidity
10518;BME280;5307;42.548;22.968;2023-03-20T00:00:20;94168.13;;;2.89;94.68
10518;BME280;5307;42.548;22.968;2023-03-20T00:02:48;94177.41;;;2.78;95.15
10518;BME280;5307;42.548;22.968;2023-03-20T00:05:17;94171.13;;;3.09;95.53
10518;BME280;5307;42.548;22.968;2023-03-20T00:10:14;94155.34;;;3.08;94.64
10518;BME280;5307;42.548;22.968;2023-03-20T00:12:42;94171.47;;;3.22;94.56
10518;BME280;5307;42.548;22.968;2023-03-20T00:15:29;94168.50;;;2.91;93.92
10518;BME280;5307;42.548;22.968;2023-03-20T00:17:56;94169.72;;;2.76;95.36
10518;BME280;5307;42.548;22.968;2023-03-20T00:20:23;94163.50;;;2.93;95.10
10518;BME280;5307;42.548;22.968;2023-03-20T00:22:51;94164.66;;;2.96;95.04
10518;BME280;5307;42.548;22.968;2023-03-20T00:25:19;94153.13;;;2.81;95.41
10518;BME280;5307;42.548;22.968;2023-03-20T00:27:46;94155.09;;;2.70;96.37
10518;BME280;5307;42.548;22.968;2023-03-20T00:30:26;94163.53;;;2.76;96.19
10518;BME280;5307;42.548;22.968;2023-03-20T00:32:56;94166.59;;;2.81;96.05
10518;BME280;5307;42.548;22.968;2023-03-20T00:35:26;94158.13;;;2.86;95.52
10518;BME280;5307;42.548;22.968;2023-03-20T00:37:54;94160.06;;;2.79;95.63
10518;BME280;5307;42.548;22.968;2023-03-20T00:40:23;94172.00;;;2.78;96.46
10518;BME280;5307;42.548;22.968;2023-03-20T00:42:57;94170.47;;;2.84;95.54
10518;BME280;5307;42.548;22.968;2023-03-20T00:45:25;94157.41;;;2.64;95.64
10518;BME280;5307;42.548;22.968;2023-03-20T00:47:55;94156.28;;;2.55;96.06
10518;BME280;5307;42.548;22.968;2023-03-20T00:50:26;94155.44;;;2.86;96.15
10518;BME280;5307;42.548;22.968;2023-03-20T01:02:45;94150.13;;;2.58;96.54
10518;BME280;5307;42.548;22.968;2023-03-20T01:07:42;94157.03;;;2.59;95.76
10518;BME280;5307;42.548;22.968;2023-03-20T01:10:10;94152.09;;;2.40;96.66
10518;BME280;5307;42.548;22.968;2023-03-20T01:12:37;94150.50;;;2.49;96.59
10518;BME280;5307;42.548;22.968;2023-03-20T01:15:14;94144.72;;;2.51;97.25
10518;BME280;5307;42.548;22.968;2023-03-20T01:17:41;94146.28;;;2.45;97.32
10518;BME280;5307;42.548;22.968;2023-03-20T01:20:13;94149.75;;;2.45;97.38
10518;BME280;5307;42.548;22.968;2023-03-20T01:22:42;94148.97;;;2.37;97.60
10518;BME280;5307;42.548;22.968;2023-03-20T01:25:09;94137.81;;;2.35;97.13
10518;BME280;5307;42.548;22.968;2023-03-20T01:27:36;94127.47;;;2.16;97.32
10518;BME280;5307;42.548;22.968;2023-03-20T01:30:11;94140.50;;;2.35;97.33
10518;BME280;5307;42.548;22.968;2023-03-20T01:32:41;94142.06;;;2.36;97.53
10518;BME280;5307;42.548;22.968;2023-03-20T01:35:11;94142.44;;;2.31;98.14
10518;BME280;5307;42.548;22.968;2023-03-20T01:37:39;94142.09;;;2.26;98.59
10518;BME280;5307;42.548;22.968;2023-03-20T01:40:15;94142.84;;;2.26;98.45
10518;BME280;5307;42.548;22.968;2023-03-20T01:42:43;94132.03;;;2.37;98.58
10518;BME280;5307;42.548;22.968;2023-03-20T01:45:15;94142.09;;;2.26;98.71
10518;BME280;5307;42.548;22.968;2023-03-20T01:47:42;94139.34;;;2.36;98.32
10518;BME280;5307;42.548;22.968;2023-03-20T01:50:22;94147.06;;;2.42;97.05
10518;BME280;5307;42.548;22.968;2023-03-20T01:52:54;94153.25;;;2.28;98.25
10518;BME280;5307;42.548;22.968;2023-03-20T01:55:25;94159.78;;;2.13;98.16
10518;BME280;5307;42.548;22.968;2023-03-20T01:57:53;94139.38;;;2.19;99.28
10518;BME280;5307;42.548;22.968;2023-03-20T02:00:22;94152.84;;;2.29;98.98
10518;BME280;5307;42.548;22.968;2023-03-20T02:02:50;94154.38;;;2.45;97.25
10518;BME280;5307;42.548;22.968;2023-03-20T02:05:19;94150.94;;;2.26;96.84
10518;BME280;5307;42.548;22.968;2023-03-20T02:07:56;94135.91;;;2.07;96.70
10518;BME280;5307;42.548;22.968;2023-03-20T02:10:26;94153.22;;;2.10;98.07
10518;BME280;5307;42.548;22.968;2023-03-20T02:12:53;94150.56;;;2.03;97.84
10518;BME280;5307;42.548;22.968;2023-03-20T02:15:20;94145.94;;;2.00;98.59
10518;BME280;5307;42.548;22.968;2023-03-20T02:17:47;94150.16;;;2.04;98.44
10518;BME280;5307;42.548;22.968;2023-03-20T02:20:23;94145.56;;;1.98;98.57
10518;BME280;5307;42.548;22.968;2023-03-20T02:23:19;94135.94;;;1.86;98.59
10518;BME280;5307;42.548;22.968;2023-03-20T02:26:25;94149.00;;;1.95;98.83
10518;BME280;5307;42.548;22.968;2023-03-20T02:32:18;94150.53;;;2.10;98.73
10518;BME280;5307;42.548;22.968;2023-03-20T02:38:19;94144.38;;;1.95;99.30
10518;BME280;5307;42.548;22.968;2023-03-20T02:40:57;94145.94;;;2.03;98.55
10518;BME280;5307;42.548;22.968;2023-03-20T02:43:34;94142.47;;;2.03;97.85
10518;BME280;5307;42.548;22.968;2023-03-20T02:46:12;94152.09;;;2.04;97.20
10518;BME280;5307;42.548;22.968;2023-03-20T02:48:50;94149.00;;;1.81;96.64
10518;BME280;5307;42.548;22.968;2023-03-20T02:51:25;94152.06;;;1.83;96.00
10518;BME280;5307;42.548;22.968;2023-03-20T02:54:05;94145.94;;;1.71;95.95
10518;BME280;5307;42.548;22.968;2023-03-20T02:56:36;94147.47;;;1.72;97.02
10518;BME280;5307;42.548;22.968;2023-03-20T02:59:18;94153.59;;;1.62;97.50
10518;BME280;5307;42.548;22.968;2023-03-20T03:01:51;94148.56;;;1.54;97.58
10518;BME280;5307;42.548;22.968;2023-03-20T03:04:22;94150.53;;;1.60;98.76
10518;BME280;5307;42.548;22.968;2023-03-20T03:06:52;94156.31;;;1.76;98.43
10518;BME280;5307;42.548;22.968;2023-03-20T03:09:24;94145.88;;;1.54;98.67
10518;BME280;5307;42.548;22.968;2023-03-20T03:11:53;94158.97;;;1.52;98.38
10518;BME280;5307;42.548;22.968;2023-03-20T03:14:29;94155.13;;;1.53;99.27
10518;BME280;5307;42.548;22.968;2023-03-20T03:16:59;94151.28;;;1.61;99.05
10518;BME280;5307;42.548;22.968;2023-03-20T03:19:29;94145.09;;;1.39;99.74
10518;BME280;5307;42.548;22.968;2023-03-20T03:21:57;94147.78;;;1.39;99.95
10518;BME280;5307;42.548;22.968;2023-03-20T03:24:29;94144.72;;;1.44;99.85
10518;BME280;5307;42.548;22.968;2023-03-20T03:26:59;94147.81;;;1.53;99.83
10518;BME280;5307;42.548;22.968;2023-03-20T03:29:30;94142.00;;;1.37;100.00
10518;BME280;5307;42.548;22.968;2023-03-20T03:32:01;94145.88;;;1.46;100.00
10518;BME280;5307;42.548;22.968;2023-03-20T03:34:29;94139.72;;;1.39;100.00
10518;BME280;5307;42.548;22.968;2023-03-20T03:37:01;94143.59;;;1.45;100.00
10518;BME280;5307;42.548;22.968;2023-03-20T03:39:36;94129.34;;;1.41;100.00
10518;BME280;5307;42.548;22.968;2023-03-20T03:42:07;94137.41;;;1.37;100.00
10518;BME280;5307;42.548;22.968;2023-03-20T03:44:40;94128.94;;;1.39;100.00
10518;BME280;5307;42.548;22.968;2023-03-20T03:47:18;94123.94;;;1.34;100.00
10518;BME280;5307;42.548;22.968;2023-03-20T03:49:48;94126.25;;;1.39;100.00
10518;BME280;5307;42.548;22.968;2023-03-20T03:52:19;94129.75;;;1.54;100.00
10518;BME280;5307;42.548;22.968;2023-03-20T03:54:51;94133.16;;;1.40;100.00
10518;BME280;5307;42.548;22.968;2023-03-20T03:57:24;94140.47;;;1.36;100.00
10518;BME280;5307;42.548;22.968;2023-03-20T03:59:55;94135.13;;;1.46;100.00
10518;BME280;5307;42.548;22.968;2023-03-20T04:02:23;94127.78;;;1.36;100.00
10518;BME280;5307;42.548;22.968;2023-03-20T04:04:52;94130.13;;;1.41;100.00
10518;BME280;5307;42.548;22.968;2023-03-20T04:07:20;94122.03;;;1.38;100.00
10518;BME280;5307;42.548;22.968;2023-03-20T04:09:48;94125.88;;;1.37;100.00
10518;BME280;5307;42.548;22.968;2023-03-20T04:12:32;94125.09;;;1.40;100.00
10518;BME280;5307;42.548;22.968;2023-03-20T04:14:59;94113.16;;;1.27;100.00
10518;BME280;5307;42.548;22.968;2023-03-20T04:17:25;94111.25;;;1.24;100.00
10518;BME280;5307;42.548;22.968;2023-03-20T04:19:52;94115.50;;;1.32;100.00
10518;BME280;5307;42.548;22.968;2023-03-20T04:22:19;94115.50;;;1.32;100.00
10518;BME280;5307;42.548;22.968;2023-03-20T04:24:46;94117.03;;;1.33;100.00
10518;BME280;5307;42.548;22.968;2023-03-20T04:27:14;94112.84;;;1.57;100.00
10518;BME280;5307;42.548;22.968;2023-03-20T04:29:42;94118.97;;;1.50;100.00
10518;BME280;5307;42.548;22.968;2023-03-20T04:32:08;94122.06;;;1.52;100.00
10518;BME280;5307;42.548;22.968;2023-03-20T04:34:35;94124.34;;;1.39;99.72
10518;BME280;5307;42.548;22.968;2023-03-20T04:37:02;94132.06;;;1.62;99.82
10518;BME280;5307;42.548;22.968;2023-03-20T04:39:29;94122.44;;;1.51;99.84
10518;BME280;5307;42.548;22.968;2023-03-20T04:41:56;94125.16;;;1.58;99.26
10518;BME280;5307;42.548;22.968;2023-03-20T04:44:24;94129.75;;;1.68;98.88
10518;BME280;5307;42.548;22.968;2023-03-20T04:46:53;94134.75;;;1.44;99.27
10518;BME280;5307;42.548;22.968;2023-03-20T04:49:19;94145.91;;;1.61;99.51
10518;BME280;5307;42.548;22.968;2023-03-20T04:51:46;94144.38;;;1.67;99.80
10518;BME280;5307;42.548;22.968;2023-03-20T04:54:13;94145.16;;;1.60;98.69
10518;BME280;5307;42.548;22.968;2023-03-20T04:56:40;94140.50;;;1.50;97.61
10518;BME280;5307;42.548;22.968;2023-03-20T04:59:07;94143.22;;;1.78;97.56
10518;BME280;5307;42.548;22.968;2023-03-20T05:01:35;94151.31;;;1.82;97.27
10518;BME280;5307;42.548;22.968;2023-03-20T05:04:02;94155.16;;;1.77;97.03
10518;BME280;5307;42.548;22.968;2023-03-20T05:06:30;94154.38;;;1.66;96.42
10518;BME280;5307;42.548;22.968;2023-03-20T05:08:57;94145.16;;;1.60;96.02
10518;BME280;5307;42.548;22.968;2023-03-20T05:11:25;94152.38;;;1.35;96.95
10518;BME280;5307;42.548;22.968;2023-03-20T05:13:52;94147.81;;;1.42;97.59
10518;BME280;5307;42.548;22.968;2023-03-20T05:16:18;94151.69;;;1.56;97.52
10518;BME280;5307;42.548;22.968;2023-03-20T05:18:47;94151.28;;;1.68;96.98
10518;BME280;5307;42.548;22.968;2023-03-20T05:21:14;94149.75;;;1.81;96.05
10518;BME280;5307;42.548;22.968;2023-03-20T05:23:40;94151.69;;;1.95;95.34
10518;BME280;5307;42.548;22.968;2023-03-20T05:26:07;94157.47;;;1.97;95.07
10518;BME280;5307;42.548;22.968;2023-03-20T05:28:34;94166.34;;;1.97;95.20
10518;BME280;5307;42.548;22.968;2023-03-20T05:31:01;94162.09;;;2.28;93.70
10518;BME280;5307;42.548;22.968;2023-03-20T05:33:27;94161.31;;;2.21;92.98
10518;BME280;5307;42.548;22.968;2023-03-20T05:35:56;94164.41;;;2.01;92.34
10518;BME280;5307;42.548;22.968;2023-03-20T05:38:23;94165.94;;;2.02;92.89
10518;BME280;5307;42.548;22.968;2023-03-20T05:40:55;94164.41;;;2.19;92.56
10518;BME280;5307;42.548;22.968;2023-03-20T05:43:23;94161.31;;;1.89;91.84
10518;BME280;5307;42.548;22.968;2023-03-20T05:45:49;94166.69;;;1.96;92.06
10518;BME280;5307;42.548;22.968;2023-03-20T05:48:16;94170.56;;;2.05;92.49
10518;BME280;5307;42.548;22.968;2023-03-20T05:50:43;94171.31;;;2.42;91.73
10518;BME280;5307;42.548;22.968;2023-03-20T05:53:11;94176.22;;;2.89;90.17
10518;BME280;5307;42.548;22.968;2023-03-20T05:55:38;94166.19;;;3.01;89.65
10518;BME280;5307;42.548;22.968;2023-03-20T05:58:07;94163.06;;;3.06;88.12
10518;BME280;5307;42.548;22.968;2023-03-20T06:00:33;94168.09;;;3.04;87.50
10518;BME280;5307;42.548;22.968;2023-03-20T06:03:00;94162.66;;;3.07;86.18
10518;BME280;5307;42.548;22.968;2023-03-20T06:05:27;94156.38;;;3.35;85.92
10518;BME280;5307;42.548;22.968;2023-03-20T06:07:54;94155.66;;;3.27;84.59
10518;BME280;5307;42.548;22.968;2023-03-20T06:10:22;94152.59;;;3.22;84.56
10518;BME280;5307;42.548;22.968;2023-03-20T06:12:49;94153.94;;;3.58;85.23
10518;BME280;5307;42.548;22.968;2023-03-20T06:15:15;94155.88;;;3.58;84.07
10518;BME280;5307;42.548;22.968;2023-03-20T06:17:42;94166.22;;;3.70;82.74
10518;BME280;5307;42.548;22.968;2023-03-20T06:20:10;94170.06;;;3.73;82.82
10518;BME280;5307;42.548;22.968;2023-03-20T06:22:37;94170.38;;;3.85;81.94
10518;BME280;5307;42.548;22.968;2023-03-20T06:25:04;94176.78;;;4.06;80.97
10518;BME280;5307;42.548;22.968;2023-03-20T06:27:33;94178.66;;;4.16;80.62
10518;BME280;5307;42.548;22.968;2023-03-20T06:30:00;94178.78;;;4.46;80.56
10518;BME280;5307;42.548;22.968;2023-03-20T06:32:27;94172.72;;;4.32;79.26
10518;BME280;5307;42.548;22.968;2023-03-20T06:34:53;94166.09;;;4.40;79.61
10518;BME280;5307;42.548;22.968;2023-03-20T06:37:20;94169.34;;;4.65;78.91
10518;BME280;5307;42.548;22.968;2023-03-20T06:39:47;94160.84;;;4.63;78.67
10518;BME280;5307;42.548;22.968;2023-03-20T06:42:14;94165.53;;;4.97;78.56
10518;BME280;5307;42.548;22.968;2023-03-20T06:44:43;94167.53;;;4.93;77.93
10518;BME280;5307;42.548;22.968;2023-03-20T06:47:10;94159.69;;;5.63;78.46
10518;BME280;5307;42.548;22.968;2023-03-20T06:49:38;94155.00;;;5.67;78.24
10518;BME280;5307;42.548;22.968;2023-03-20T06:52:05;94156.44;;;5.75;78.42
10518;BME280;5307;42.548;22.968;2023-03-20T06:54:34;94148.75;;;6.01;78.29
10518;BME280;5307;42.548;22.968;2023-03-20T06:57:01;94156.72;;;6.11;77.87
10518;BME280;5307;42.548;22.968;2023-03-20T06:59:27;94155.75;;;6.25;77.22
10518;BME280;5307;42.548;22.968;2023-03-20T07:01:56;94153.78;;;6.25;77.84
10518;BME280;5307;42.548;22.968;2023-03-20T07:04:23;94156.91;;;6.47;77.15
10518;BME280;5307;42.548;22.968;2023-03-20T07:06:50;94155.03;;;6.68;76.61
10518;BME280;5307;42.548;22.968;2023-03-20T07:09:16;94159.75;;;6.40;75.72
10518;BME280;5307;42.548;22.968;2023-03-20T07:11:43;94155.38;;;6.70;75.29
10518;BME280;5307;42.548;22.968;2023-03-20T07:14:11;94153.56;;;6.63;73.81
10518;BME280;5307;42.548;22.968;2023-03-20T07:16:37;94158.53;;;6.88;74.53
10518;BME280;5307;42.548;22.968;2023-03-20T07:19:06;94150.78;;;6.67;74.43
10518;BME280;5307;42.548;22.968;2023-03-20T07:21:33;94148.53;;;7.05;73.88
10518;BME280;5307;42.548;22.968;2023-03-20T07:24:00;94153.28;;;7.21;73.17
10518;BME280;5307;42.548;22.968;2023-03-20T07:26:26;94146.34;;;7.56;72.11
10518;BME280;5307;42.548;22.968;2023-03-20T07:28:53;94151.47;;;7.34;72.21
10518;BME280;5307;42.548;22.968;2023-03-20T07:31:22;94151.66;;;7.43;71.68
10518;BME280;5307;42.548;22.968;2023-03-20T07:33:49;94151.19;;;8.00;69.99
10518;BME280;5307;42.548;22.968;2023-03-20T07:36:18;94144.66;;;7.98;70.81
10518;BME280;5307;42.548;22.968;2023-03-20T07:38:44;94137.03;;;8.58;70.91
10518;BME280;5307;42.548;22.968;2023-03-20T07:41:11;94140.63;;;8.39;68.78
10518;BME280;5307;42.548;22.968;2023-03-20T07:43:38;94138.25;;;8.41;68.22
10518;BME280;5307;42.548;22.968;2023-03-20T07:46:06;94143.56;;;8.77;66.56
10518;BME280;5307;42.548;22.968;2023-03-20T07:48:33;94140.78;;;8.64;66.40
10518;BME280;5307;42.548;22.968;2023-03-20T07:51:00;94121.47;;;9.04;63.88
10518;BME280;5307;42.548;22.968;2023-03-20T07:53:28;94124.56;;;8.89;64.69
10518;BME280;5307;42.548;22.968;2023-03-20T07:55:55;94129.88;;;9.51;62.55
10518;BME280;5307;42.548;22.968;2023-03-20T07:58:22;94125.00;;;9.84;62.86
10518;BME280;5307;42.548;22.968;2023-03-20T08:00:49;94125.69;;;9.88;63.21
10518;BME280;5307;42.548;22.968;2023-03-20T08:03:15;94115.13;;;10.97;61.12
10518;BME280;5307;42.548;22.968;2023-03-20T08:05:42;94114.41;;;10.50;59.15
10518;BME280;5307;42.548;22.968;2023-03-20T08:08:09;94118.88;;;10.56;56.48
10518;BME280;5307;42.548;22.968;2023-03-20T08:10:37;94120.13;;;11.34;55.66
10518;BME280;5307;42.548;22.968;2023-03-20T08:13:04;94118.97;;;11.22;54.04
10518;BME280;5307;42.548;22.968;2023-03-20T08:15:31;94122.69;;;11.28;53.67
10518;BME280;5307;42.548;22.968;2023-03-20T08:17:58;94126.47;;;11.09;52.72
10518;BME280;5307;42.548;22.968;2023-03-20T08:20:25;94131.13;;;11.86;51.82
10518;BME280;5307;42.548;22.968;2023-03-20T08:22:52;94124.19;;;12.04;50.97
10518;BME280;5307;42.548;22.968;2023-03-20T08:25:18;94123.25;;;12.29;50.80
10518;BME280;5307;42.548;22.968;2023-03-20T08:27:47;94129.72;;;12.62;49.95
10518;BME280;5307;42.548;22.968;2023-03-20T08:30:14;94132.31;;;12.16;48.77
10518;BME280;5307;42.548;22.968;2023-03-20T08:32:41;94119.09;;;12.73;48.58
10518;BME280;5307;42.548;22.968;2023-03-20T08:35:08;94129.44;;;12.20;46.65
10518;BME280;5307;42.548;22.968;2023-03-20T08:37:35;94116.75;;;12.44;46.20
10518;BME280;5307;42.548;22.968;2023-03-20T08:40:04;94128.13;;;12.34;45.85
10518;BME280;5307;42.548;22.968;2023-03-20T08:42:31;94124.66;;;12.52;45.17
10518;BME280;5307;42.548;22.968;2023-03-20T08:44:59;94113.47;;;13.69;44.49
10518;BME280;5307;42.548;22.968;2023-03-20T08:47:26;94116.78;;;13.73;46.11
10518;BME280;5307;42.548;22.968;2023-03-20T08:49:53;94106.78;;;13.51;44.66
10518;BME280;5307;42.548;22.968;2023-03-20T08:52:20;94104.03;;;14.12;43.86
10518;BME280;5307;42.548;22.968;2023-03-20T08:54:46;94101.19;;;13.97;44.12
10518;BME280;5307;42.548;22.968;2023-03-20T08:57:13;94108.38;;;13.85;44.25
10518;BME280;5307;42.548;22.968;2023-03-20T08:59:40;94098.84;;;14.05;43.10
10518;BME280;5307;42.548;22.968;2023-03-20T09:02:10;94099.50;;;13.90;43.14
10518;BME280;5307;42.548;22.968;2023-03-20T09:04:37;94098.31;;;13.82;43.06
10518;BME280;5307;42.548;22.968;2023-03-20T09:07:03;94095.25;;;13.89;42.47
10518;BME280;5307;42.548;22.968;2023-03-20T09:09:30;94100.06;;;14.46;43.87
10518;BME280;5307;42.548;22.968;2023-03-20T09:11:58;94092.44;;;14.50;40.60
10518;BME280;5307;42.548;22.968;2023-03-20T09:14:26;94083.41;;;14.49;41.57
10518;BME280;5307;42.548;22.968;2023-03-20T09:16:53;94082.13;;;15.07;42.14
10518;BME280;5307;42.548;22.968;2023-03-20T09:19:21;94069.03;;;15.17;41.11
10518;BME280;5307;42.548;22.968;2023-03-20T09:21:48;94066.78;;;15.45;40.95
10518;BME280;5307;42.548;22.968;2023-03-20T09:24:15;94065.38;;;14.96;40.66
10518;BME280;5307;42.548;22.968;2023-03-20T09:26:42;94060.63;;;15.35;39.55
10518;BME280;5307;42.548;22.968;2023-03-20T09:29:09;94052.00;;;15.57;38.18
10518;BME280;5307;42.548;22.968;2023-03-20T09:31:35;94052.47;;;15.56;37.84
10518;BME280;5307;42.548;22.968;2023-03-20T09:34:02;94054.75;;;15.42;38.71
10518;BME280;5307;42.548;22.968;2023-03-20T09:36:31;94048.53;;;15.18;38.61
10518;BME280;5307;42.548;22.968;2023-03-20T09:38:58;94039.47;;;15.41;37.98
10518;BME280;5307;42.548;22.968;2023-03-20T09:41:26;94027.13;;;15.81;39.21
10518;BME280;5307;42.548;22.968;2023-03-20T09:44:09;94036.16;;;15.82;37.66
10518;BME280;5307;42.548;22.968;2023-03-20T09:46:59;94031.47;;;16.02;38.26
10518;BME280;5307;42.548;22.968;2023-03-20T09:49:42;94022.06;;;16.09;37.56
10518;BME280;5307;42.548;22.968;2023-03-20T09:52:20;94022.94;;;16.56;36.98
10518;BME280;5307;42.548;22.968;2023-03-20T09:54:50;94018.03;;;16.45;38.90
10518;BME280;5307;42.548;22.968;2023-03-20T09:57:21;94013.91;;;16.35;36.22
10518;BME280;5307;42.548;22.968;2023-03-20T09:59:54;94011.69;;;16.39;36.25
10518;BME280;5307;42.548;22.968;2023-03-20T10:02:28;94008.22;;;16.24;38.21
10518;BME280;5307;42.548;22.968;2023-03-20T10:05:02;94005.50;;;16.65;36.98
10518;BME280;5307;42.548;22.968;2023-03-20T10:07:32;93994.56;;;16.70;36.62
10518;BME280;5307;42.548;22.968;2023-03-20T10:09:59;93987.16;;;16.21;36.70
10518;BME280;5307;42.548;22.968;2023-03-20T10:12:43;93993.81;;;16.70;36.70
10518;BME280;5307;42.548;22.968;2023-03-20T10:15:19;93981.63;;;17.02;36.55
10518;BME280;5307;42.548;22.968;2023-03-20T10:17:55;93984.69;;;16.84;36.89
10518;BME280;5307;42.548;22.968;2023-03-20T10:20:32;93984.56;;;17.19;37.64
10518;BME280;5307;42.548;22.968;2023-03-20T10:23:05;93977.69;;;17.09;38.51
10518;BME280;5307;42.548;22.968;2023-03-20T10:25:34;93973.31;;;17.23;36.48
10518;BME280;5307;42.548;22.968;2023-03-20T10:28:05;93977.44;;;17.33;37.72
10518;BME280;5307;42.548;22.968;2023-03-20T10:30:48;93978.19;;;17.65;35.89
10518;BME280;5307;42.548;22.968;2023-03-20T10:33:29;93973.69;;;17.10;35.20
10518;BME280;5307;42.548;22.968;2023-03-20T10:36:10;93961.34;;;17.05;34.25
10518;BME280;5307;42.548;22.968;2023-03-20T10:38:47;93958.09;;;17.07;34.89
10518;BME280;5307;42.548;22.968;2023-03-20T10:41:16;93954.75;;;17.55;34.45
10518;BME280;5307;42.548;22.968;2023-03-20T10:43:47;93955.66;;;17.72;35.80
10518;BME280;5307;42.548;22.968;2023-03-20T10:46:18;93941.38;;;17.73;36.78
10518;BME280;5307;42.548;22.968;2023-03-20T10:48:49;93945.94;;;17.82;34.86
10518;BME280;5307;42.548;22.968;2023-03-20T10:51:21;93948.13;;;17.41;32.78
10518;BME280;5307;42.548;22.968;2023-03-20T10:53:52;93942.88;;;17.17;32.45
10518;BME280;5307;42.548;22.968;2023-03-20T10:56:26;93937.38;;;17.74;34.05
10518;BME280;5307;42.548;22.968;2023-03-20T10:58:58;93933.38;;;17.81;32.92
10518;BME280;5307;42.548;22.968;2023-03-20T11:01:29;93928.38;;;17.79;33.39
10518;BME280;5307;42.548;22.968;2023-03-20T11:03:55;93921.91;;;17.88;34.37
10518;BME280;5307;42.548;22.968;2023-03-20T11:06:24;93917.91;;;17.95;32.20
10518;BME280;5307;42.548;22.968;2023-03-20T11:08:54;93924.97;;;17.33;31.99
10518;BME280;5307;42.548;22.968;2023-03-20T11:11:23;93908.94;;;17.68;34.62
10518;BME280;5307;42.548;22.968;2023-03-20T11:13:51;93900.22;;;17.75;32.38
10518;BME280;5307;42.548;22.968;2023-03-20T11:16:20;93911.47;;;17.72;32.40
10518;BME280;5307;42.548;22.968;2023-03-20T11:18:48;93897.56;;;17.98;32.93
10518;BME280;5307;42.548;22.968;2023-03-20T11:21:21;93899.38;;;18.06;32.58
10518;BME280;5307;42.548;22.968;2023-03-20T11:23:49;93892.47;;;17.85;31.26
10518;BME280;5307;42.548;22.968;2023-03-20T11:26:25;93889.50;;;17.89;30.78
10518;BME280;5307;42.548;22.968;2023-03-20T11:28:55;93885.75;;;17.92;30.68
10518;BME280;5307;42.548;22.968;2023-03-20T11:31:26;93876.88;;;17.76;30.69
10518;BME280;5307;42.548;22.968;2023-03-20T11:34:09;93873.50;;;18.04;31.05
10518;BME280;5307;42.548;22.968;2023-03-20T11:36:37;93865.53;;;18.28;31.23
10518;BME280;5307;42.548;22.968;2023-03-20T11:39:10;93854.16;;;18.09;28.23
10518;BME280;5307;42.548;22.968;2023-03-20T11:41:46;93846.13;;;18.12;29.33
10518;BME280;5307;42.548;22.968;2023-03-20T11:44:22;93840.94;;;18.42;29.97
10518;BME280;5307;42.548;22.968;2023-03-20T11:46:54;93847.03;;;18.57;31.11
10518;BME280;5307;42.548;22.968;2023-03-20T11:49:23;93837.47;;;18.58;31.29
10518;BME280;5307;42.548;22.968;2023-03-20T11:51:52;93828.66;;;18.54;29.80
10518;BME280;5307;42.548;22.968;2023-03-20T11:54:22;93830.63;;;18.31;31.38
10518;BME280;5307;42.548;22.968;2023-03-20T11:56:55;93827.78;;;18.14;30.00
10518;BME280;5307;42.548;22.968;2023-03-20T11:59:25;93827.38;;;18.32;31.25
10518;BME280;5307;42.548;22.968;2023-03-20T12:01:56;93822.59;;;18.38;31.03
10518;BME280;5307;42.548;22.968;2023-03-20T12:04:26;93816.72;;;18.14;28.88
10518;BME280;5307;42.548;22.968;2023-03-20T12:06:56;93810.19;;;18.12;30.57
10518;BME280;5307;42.548;22.968;2023-03-20T12:09:39;93814.06;;;18.42;29.64
10518;BME280;5307;42.548;22.968;2023-03-20T12:12:16;93808.06;;;18.60;29.66
10518;BME280;5307;42.548;22.968;2023-03-20T12:14:52;93803.69;;;18.20;29.87
10518;BME280;5307;42.548;22.968;2023-03-20T12:17:31;93809.69;;;18.13;28.03
10518;BME280;5307;42.548;22.968;2023-03-20T12:20:05;93805.50;;;18.40;28.72
10518;BME280;5307;42.548;22.968;2023-03-20T12:22:35;93792.34;;;18.13;29.13
10518;BME280;5307;42.548;22.968;2023-03-20T12:25:11;93790.13;;;18.17;31.50
10518;BME280;5307;42.548;22.968;2023-03-20T12:27:46;93794.75;;;18.59;29.23
10518;BME280;5307;42.548;22.968;2023-03-20T12:30:19;93790.16;;;18.33;27.35
10518;BME280;5307;42.548;22.968;2023-03-20T12:32:57;93783.06;;;18.10;26.45
10518;BME280;5307;42.548;22.968;2023-03-20T12:35:27;93779.59;;;18.26;25.94
10518;BME280;5307;42.548;22.968;2023-03-20T12:37:55;93778.38;;;18.44;27.54
10518;BME280;5307;42.548;22.968;2023-03-20T12:40:29;93770.84;;;18.45;27.50
10518;BME280;5307;42.548;22.968;2023-03-20T12:43:03;93774.84;;;18.38;30.96
10518;BME280;5307;42.548;22.968;2023-03-20T12:45:36;93769.59;;;18.46;26.74
10518;BME280;5307;42.548;22.968;2023-03-20T12:48:13;93762.84;;;18.80;28.56
10518;BME280;5307;42.548;22.968;2023-03-20T12:50:47;93765.00;;;18.20;29.81
10518;BME280;5307;42.548;22.968;2023-03-20T12:53:32;93751.91;;;18.15;29.31
10518;BME280;5307;42.548;22.968;2023-03-20T12:56:12;93736.06;;;18.16;27.43
10518;BME280;5307;42.548;22.968;2023-03-20T12:58:46;93742.09;;;18.08;29.37
10518;BME280;5307;42.548;22.968;2023-03-20T13:01:19;93739.06;;;18.01;27.06
10518;BME280;5307;42.548;22.968;2023-03-20T13:04:05;93737.09;;;18.24;26.96
10518;BME280;5307;42.548;22.968;2023-03-20T13:06:44;93736.31;;;18.12;28.04
10518;BME280;5307;42.548;22.968;2023-03-20T13:12:19;93728.78;;;18.07;27.37
10518;BME280;5307;42.548;22.968;2023-03-20T13:14:56;93722.72;;;17.92;25.65
10518;BME280;5307;42.548;22.968;2023-03-20T13:17:32;93717.72;;;18.07;26.51
10518;BME280;5307;42.548;22.968;2023-03-20T13:20:20;93707.16;;;17.89;29.92
10518;BME280;5307;42.548;22.968;2023-03-20T13:22:56;93718.69;;;17.93;29.61
10518;BME280;5307;42.548;22.968;2023-03-20T13:25:34;93705.63;;;17.88;27.76
10518;BME280;5307;42.548;22.968;2023-03-20T13:28:14;93702.16;;;18.04;28.82
10518;BME280;5307;42.548;22.968;2023-03-20T13:30:49;93703.97;;;18.46;29.13
10518;BME280;5307;42.548;22.968;2023-03-20T13:33:31;93703.19;;;18.34;29.56
10518;BME280;5307;42.548;22.968;2023-03-20T13:36:06;93697.63;;;18.12;26.46
10518;BME280;5307;42.548;22.968;2023-03-20T13:38:41;93701.94;;;18.52;27.53
10518;BME280;5307;42.548;22.968;2023-03-20T13:41:10;93694.13;;;18.28;29.36
10518;BME280;5307;42.548;22.968;2023-03-20T13:43:39;93693.66;;;18.47;29.23
10518;BME280;5307;42.548;22.968;2023-03-20T13:46:11;93690.63;;;18.56;30.77